Terminal Aerodrome Forecast
Issued by NWS Cleveland, OH

Home | Current Version | Previous Version | Text Only | Print | Product List | Glossary Off
Versions: 1 2 3 4 5 6 7 8 9 10 11 12 13 14 15 16 17

305
FTUS41 KCLE 241120
TAFERI
TAF
KERI 241120Z 2412/2512 26008KT P6SM SCT060
     FM241600 26010G18KT P6SM SCT050
     FM242300 25008KT P6SM BKN050=

USA.gov is the U.S. government's official web portal to all federal, state and local government web resources and services.